Time;durP1;ratioP1;P1;durP2;ratioP2;P2;SDS_P1;SDS_P2;PMS_P1;PMS_P2;Temp;Humidity;BMP_temperature;BMP_pressure;BME280_temperature;BME280_humidity;BME280_pressure;Samples;Min_cycle;Max_cycle;Signal;HPM_P1;HPM_P2
2024/04/23 00:01:46;;;;;;;41.97;39.08;;;;;;;-143.39;100.00;64013.03;5381544;26;20347;-74
2024/04/23 00:04:12;;;;;;;38.17;35.50;;;;;;;-143.39;100.00;64013.03;5379464;26;20338;-74
2024/04/23 00:06:41;;;;;;;40.08;37.17;;;;;;;-143.39;100.00;64013.03;5382255;26;20853;-74
2024/04/23 00:09:10;;;;;;;41.83;38.83;;;;;;;-143.39;100.00;64013.03;5379063;26;20440;-77
2024/04/23 00:11:39;;;;;;;36.20;33.60;;;;;;;-143.39;100.00;64013.03;5381238;26;20000;-75
2024/04/23 00:14:05;;;;;;;35.55;32.85;;;;;;;-143.39;100.00;64013.03;5379309;26;20001;-78
2024/04/23 00:16:34;;;;;;;33.85;31.35;;;;;;;-143.39;100.00;64013.03;5381773;26;20018;-78
2024/04/23 00:19:00;;;;;;;36.97;34.38;;;;;;;-143.39;100.00;64013.03;5344264;26;20001;-74
2024/04/23 00:21:28;;;;;;;34.30;31.80;;;;;;;-143.39;100.00;64013.03;5346574;26;20020;-77
2024/04/23 00:23:55;;;;;;;32.00;29.60;;;;;;;-143.39;100.00;64013.03;5344311;26;20005;-77
2024/04/23 00:26:26;;;;;;;36.03;33.40;;;;;;;-143.39;100.00;64013.03;5368042;26;20459;-74
2024/04/23 00:28:52;;;;;;;36.92;34.22;;;;;;;-143.39;100.00;64013.03;5379515;26;20073;-77
2024/04/23 00:31:22;;;;;;;35.58;33.08;;;;;;;-143.39;100.00;64013.03;5382729;26;20004;-77
2024/04/23 00:33:48;;;;;;;37.58;34.88;;;;;;;-143.39;100.00;64013.03;5380146;26;20000;-74
2024/04/23 00:36:17;;;;;;;38.45;35.55;;;;;;;-143.39;100.00;64013.03;5381618;26;20082;-74
2024/04/23 00:38:43;;;;;;;39.85;36.95;;;;;;;-143.39;100.00;64013.03;5378786;26;20000;-74
2024/04/23 00:41:12;;;;;;;37.70;35.00;;;;;;;-143.39;100.00;64013.03;5381853;26;20866;-75
2024/04/23 00:43:41;;;;;;;41.58;38.65;;;;;;;-143.39;100.00;64013.03;5379409;26;20015;-75
2024/04/23 00:46:12;;;;;;;35.28;32.78;;;;;;;-143.39;100.00;64013.03;5381653;26;20019;-74
2024/04/23 00:48:38;;;;;;;38.22;35.53;;;;;;;-143.39;100.00;64013.03;5379948;26;20019;-74
2024/04/23 00:51:07;;;;;;;36.15;33.47;;;;;;;-143.39;100.00;64013.03;5382550;26;20004;-74
2024/04/23 00:53:38;;;;;;;37.17;34.50;;;;;;;-143.39;100.00;64013.03;5349498;26;20000;-78
2024/04/23 00:56:08;;;;;;;37.75;34.95;;;;;;;-143.39;100.00;64013.03;5372365;26;20836;-77
2024/04/23 00:58:37;;;;;;;36.75;34.15;;;;;;;-143.39;100.00;64013.03;5381945;26;20026;-77
2024/04/23 01:01:08;;;;;;;41.30;38.22;;;;;;;-143.39;100.00;64013.03;5379006;26;20004;-74
2024/04/23 01:03:37;;;;;;;34.53;31.92;;;;;;;-143.39;100.00;64013.03;5381210;26;20011;-75
2024/04/23 01:06:05;;;;;;;38.47;35.55;;;;;;;-143.39;100.00;64013.03;5378864;26;20004;-74
2024/04/23 01:08:33;;;;;;;37.97;35.38;;;;;;;-143.39;100.00;64013.03;5381059;26;20000;-77
2024/04/23 01:11:00;;;;;;;31.27;28.60;;;;;;;-143.39;100.00;64013.03;5378941;26;20004;-74
2024/04/23 01:13:29;;;;;;;36.88;34.17;;;;;;;-143.39;100.00;64013.03;5380679;26;20032;-74
2024/04/23 01:15:55;;;;;;;32.50;30.10;;;;;;;-143.39;100.00;64013.03;5378173;26;20000;-75
2024/04/23 01:18:30;;;;;;;37.72;34.92;;;;;;;-143.39;100.00;64013.03;5380293;26;20018;-75
2024/04/23 01:20:59;;;;;;;39.75;36.72;;;;;;;-143.39;100.00;64013.03;5378698;26;20036;-75
2024/04/23 01:23:38;;;;;;;43.80;40.67;;;;;;;-143.39;100.00;64013.03;5380496;26;20371;-74
2024/04/23 01:26:08;;;;;;;55.17;51.20;;;;;;;-143.39;100.00;64013.03;5377235;26;19996;-74
2024/04/23 01:28:38;;;;;;;45.90;42.50;;;;;;;-143.39;100.00;64013.03;5380473;26;20008;-74
2024/04/23 01:31:07;;;;;;;43.45;40.28;;;;;;;-143.39;100.00;64013.03;5377774;26;20458;-75
2024/04/23 01:33:38;;;;;;;43.00;39.70;;;;;;;-143.39;100.00;64013.03;5381030;26;20012;-77
2024/04/23 01:36:07;;;;;;;41.53;38.38;;;;;;;-143.39;100.00;64013.03;5379223;26;20040;-78
2024/04/23 01:38:38;;;;;;;40.97;37.92;;;;;;;-143.39;100.00;64013.03;5380718;26;20000;-74
2024/04/23 01:41:08;;;;;;;44.05;40.67;;;;;;;-143.39;100.00;64013.03;5378441;26;20073;-74
2024/04/23 01:43:40;;;;;;;46.10;42.80;;;;;;;-143.39;100.00;64013.03;5381120;26;20320;-74
2024/04/23 01:46:06;;;;;;;46.42;43.05;;;;;;;-143.39;100.00;64013.03;5377595;26;20528;-74
2024/04/23 01:48:35;;;;;;;44.53;41.22;;;;;;;-143.39;100.00;64013.03;5379706;26;20000;-74
2024/04/23 01:51:01;;;;;;;48.10;44.72;;;;;;;-143.39;100.00;64013.03;5377102;26;20513;-74
2024/04/23 01:53:30;;;;;;;49.88;46.38;;;;;;;-143.39;100.00;64013.03;5379795;26;20015;-74
2024/04/23 01:55:56;;;;;;;47.15;43.85;;;;;;;-143.39;100.00;64013.03;5371127;26;20015;-74
2024/04/23 01:58:28;;;;;;;47.97;44.67;;;;;;;-143.39;100.00;64013.03;5380200;26;20020;-74
2024/04/23 02:00:56;;;;;;;48.57;45.27;;;;;;;-143.39;100.00;64013.03;5377291;26;20011;-74
2024/04/23 02:03:26;;;;;;;46.92;43.63;;;;;;;-143.39;100.00;64013.03;5380884;26;20005;-74
2024/04/23 02:05:57;;;;;;;46.42;43.22;;;;;;;-143.39;100.00;64013.03;5378297;26;20019;-74
2024/04/23 02:08:26;;;;;;;46.88;43.53;;;;;;;-143.39;100.00;64013.03;5381721;26;20004;-74
2024/04/23 02:10:52;;;;;;;50.42;47.00;;;;;;;-143.39;100.00;64013.03;5381230;26;20000;-74
2024/04/23 02:13:22;;;;;;;48.83;45.33;;;;;;;-143.39;100.00;64013.03;5383552;26;20019;-75
2024/04/23 02:15:51;;;;;;;44.65;41.45;;;;;;;-143.39;100.00;64013.03;5381445;26;20019;-74
2024/04/23 02:18:20;;;;;;;44.90;41.70;;;;;;;-143.39;100.00;64013.03;5383223;26;20077;-74
2024/04/23 02:20:47;;;;;;;38.08;35.55;;;;;;;-143.39;100.00;64013.03;5380955;26;20004;-74
2024/04/23 02:23:16;;;;;;;46.83;43.63;;;;;;;-143.39;100.00;64013.03;5384145;26;20444;-74
2024/04/23 02:25:42;;;;;;;44.95;41.97;;;;;;;-143.39;100.00;64013.03;5381202;26;20014;-74
2024/04/23 02:28:11;;;;;;;38.72;35.83;;;;;;;-143.39;100.00;64013.03;5383510;26;20036;-75
2024/04/23 02:30:37;;;;;;;41.13;38.53;;;;;;;-143.39;100.00;64013.03;5381064;26;20175;-74
2024/04/23 02:33:12;;;;;;;45.38;42.25;;;;;;;-143.39;100.00;64013.03;5383853;26;20376;-75
2024/04/23 02:35:38;;;;;;;47.70;44.67;;;;;;;-143.39;100.00;64013.03;5381087;26;20000;-74
2024/04/23 02:38:07;;;;;;;43.28;40.58;;;;;;;-143.39;100.00;64013.03;5383676;26;20422;-75
2024/04/23 02:40:33;;;;;;;46.30;43.50;;;;;;;-143.39;100.00;64013.03;5381042;26;20020;-74
2024/04/23 02:43:02;;;;;;;46.92;44.30;;;;;;;-143.39;100.00;64013.03;5382775;26;20000;-78
2024/04/23 02:45:28;;;;;;;47.72;45.03;;;;;;;-143.39;100.00;64013.03;5380658;26;20011;-78
2024/04/23 02:47:57;;;;;;;46.40;43.60;;;;;;;-143.39;100.00;64013.03;5383894;26;20470;-78
2024/04/23 02:50:26;;;;;;;46.05;43.35;;;;;;;-143.39;100.00;64013.03;5381427;26;20000;-78
2024/04/23 02:52:55;;;;;;;40.97;38.33;;;;;;;-143.39;100.00;64013.03;5383229;26;20019;-78
2024/04/23 02:55:21;;;;;;;37.13;34.83;;;;;;;-143.39;100.00;64013.03;5380886;26;20014;-77
2024/04/23 02:57:51;;;;;;;41.60;38.92;;;;;;;-143.39;100.00;64013.03;5376451;26;20012;-77
2024/04/23 03:00:17;;;;;;;43.13;40.63;;;;;;;-143.39;100.00;64013.03;5380104;26;20004;-74
2024/04/23 03:02:46;;;;;;;45.38;42.92;;;;;;;-143.39;100.00;64013.03;5382787;26;20453;-74
2024/04/23 03:05:14;;;;;;;46.67;43.78;;;;;;;-143.39;100.00;64013.03;5380491;26;20015;-74
2024/04/23 03:07:45;;;;;;;45.00;42.50;;;;;;;-143.39;100.00;64013.03;5382916;26;20000;-75
2024/04/23 03:10:14;;;;;;;43.78;41.38;;;;;;;-143.39;100.00;64013.03;5380251;26;20340;-75
2024/04/23 03:12:43;;;;;;;40.78;38.28;;;;;;;-143.39;100.00;64013.03;5383605;26;20015;-74
2024/04/23 03:15:09;;;;;;;49.40;46.53;;;;;;;-143.39;100.00;64013.03;5380907;26;20344;-75
2024/04/23 03:17:44;;;;;;;46.15;43.25;;;;;;;-143.39;100.00;64013.03;5383228;26;20008;-74
2024/04/23 03:20:10;;;;;;;47.17;44.28;;;;;;;-143.39;100.00;64013.03;5378805;26;20045;-74
2024/04/23 03:22:39;;;;;;;53.35;49.70;;;;;;;-143.39;100.00;64013.03;5383085;26;20012;-75
2024/04/23 03:25:08;;;;;;;48.75;45.65;;;;;;;-143.39;100.00;64013.03;5381164;26;20005;-74
2024/04/23 03:27:38;;;;;;;42.72;39.83;;;;;;;-143.39;100.00;64013.03;5382818;26;20015;-74
2024/04/23 03:30:05;;;;;;;52.33;48.88;;;;;;;-143.39;100.00;64013.03;5380647;26;20969;-75
2024/04/23 03:32:35;;;;;;;51.40;47.80;;;;;;;-143.39;100.00;64013.03;5382714;26;20324;-74
2024/04/23 03:35:01;;;;;;;49.50;46.20;;;;;;;-143.39;100.00;64013.03;5380169;26;20570;-74
2024/04/23 03:37:30;;;;;;;39.30;36.45;;;;;;;-143.39;100.00;64013.03;5382032;26;20340;-74
2024/04/23 03:40:05;;;;;;;34.80;32.65;;;;;;;-143.39;100.00;64013.03;5379284;26;20575;-75
2024/04/23 03:42:36;;;;;;;43.03;40.53;;;;;;;-143.39;100.00;64013.03;5379567;26;20104;-78
2024/04/23 03:45:05;;;;;;;35.63;33.42;;;;;;;-143.39;100.00;64013.03;5380453;26;20000;-75
2024/04/23 03:47:34;;;;;;;35.60;33.50;;;;;;;-143.39;100.00;64013.03;5380280;26;20004;-78
2024/04/23 03:50:07;;;;;;;35.55;33.45;;;;;;;-143.39;100.00;64013.03;5381088;26;20004;-78
2024/04/23 03:52:36;;;;;;;44.90;42.20;;;;;;;-143.39;100.00;64013.03;5375585;26;20019;-78
2024/04/23 03:55:02;;;;;;;43.85;41.35;;;;;;;-143.39;100.00;64013.03;5379571;26;20000;-78
2024/04/23 03:57:32;;;;;;;37.45;35.25;;;;;;;-143.39;100.00;64013.03;5367863;26;20044;-75
2024/04/23 04:00:02;;;;;;;45.38;42.78;;;;;;;-143.39;100.00;64013.03;5345069;26;20530;-78
2024/04/23 04:08:02;;;;;;;37.40;34.80;;;;;;;-143.39;100.00;64013.03;5369999;26;20454;-78
2024/04/23 04:10:31;;;;;;;38.25;35.95;;;;;;;-143.39;100.00;64013.03;5373560;26;20000;-78
2024/04/23 04:12:59;;;;;;;44.60;41.90;;;;;;;-143.39;100.00;64013.03;5378720;26;20000;-78
2024/04/23 04:15:32;;;;;;;47.42;44.72;;;;;;;-143.39;100.00;64013.03;5378042;26;20100;-78
2024/04/23 04:17:58;;;;;;;39.67;37.28;;;;;;;-143.39;100.00;64013.03;5370306;26;20028;-79
2024/04/23 04:20:27;;;;;;;45.13;42.42;;;;;;;-143.39;100.00;64013.03;5369056;26;20000;-78
2024/04/23 04:22:53;;;;;;;38.53;35.90;;;;;;;-143.39;100.00;64013.03;5376139;26;20533;-78
2024/04/23 04:25:22;;;;;;;33.83;31.42;;;;;;;-143.39;100.00;64013.03;5381409;26;19996;-78
2024/04/23 04:27:48;;;;;;;32.90;30.80;;;;;;;-143.39;100.00;64013.03;5379359;26;20000;-77
2024/04/23 04:30:17;;;;;;;34.30;32.10;;;;;;;-143.39;100.00;64013.03;5381568;26;20446;-78
2024/04/23 04:32:46;;;;;;;32.85;30.75;;;;;;;-143.39;100.00;64013.03;5378230;26;20004;-78
2024/04/23 04:35:15;;;;;;;30.27;28.17;;;;;;;-143.39;100.00;64013.03;5381436;26;20094;-78
2024/04/23 04:37:41;;;;;;;33.80;31.70;;;;;;;-143.39;100.00;64013.03;5378082;26;20054;-78
2024/04/23 04:40:12;;;;;;;32.90;30.70;;;;;;;-143.39;100.00;64013.03;5379177;26;20091;-78
2024/04/23 04:42:40;;;;;;;36.17;33.88;;;;;;;-143.39;100.00;64013.03;5379355;26;20004;-78
2024/04/23 04:45:09;;;;;;;33.85;31.65;;;;;;;-143.39;100.00;64013.03;5370452;26;20008;-78
2024/04/23 04:47:37;;;;;;;34.05;31.85;;;;;;;-143.39;100.00;64013.03;5379998;26;20004;-78
2024/04/23 04:50:09;;;;;;;35.22;32.92;;;;;;;-143.39;100.00;64013.03;5379356;26;20018;-79
2024/04/23 04:52:35;;;;;;;33.78;31.58;;;;;;;-143.39;100.00;64013.03;5371626;26;20028;-79
2024/04/23 04:55:04;;;;;;;34.90;32.70;;;;;;;-143.39;100.00;64013.03;5380372;26;20065;-79
2024/04/23 04:57:31;;;;;;;34.30;32.10;;;;;;;-143.39;100.00;64013.03;5370665;26;20011;-79
2024/04/23 05:00:00;;;;;;;32.25;30.15;;;;;;;-143.39;100.00;64013.03;5380615;26;20004;-79
2024/04/23 05:02:34;;;;;;;35.20;32.80;;;;;;;-143.39;100.00;64013.03;5379846;26;20078;-79
2024/04/23 05:05:08;;;;;;;38.38;35.88;;;;;;;-143.39;100.00;64013.03;5384142;26;20004;-79
2024/04/23 05:07:56;;;;;;;37.38;34.90;;;;;;;-143.39;100.00;64013.03;5381983;26;20004;-79
2024/04/23 05:10:37;;;;;;;37.20;34.60;;;;;;;-143.39;100.00;64013.03;5384646;26;20481;-78
2024/04/23 05:13:03;;;;;;;37.42;34.90;;;;;;;-143.39;100.00;64013.03;5380166;26;20824;-79
2024/04/23 05:15:54;;;;;;;38.10;35.60;;;;;;;-143.39;100.00;64013.03;5381062;26;20001;-78
2024/04/23 05:18:21;;;;;;;37.28;34.67;;;;;;;-143.39;100.00;64013.03;5382148;26;20032;-79
2024/04/23 05:21:29;;;;;;;40.75;37.97;;;;;;;-143.39;100.00;64013.03;5384413;26;20000;-79
2024/04/23 05:23:55;;;;;;;37.08;34.47;;;;;;;-143.39;100.00;64013.03;5381758;26;20500;-79
2024/04/23 05:26:24;;;;;;;38.20;35.67;;;;;;;-143.39;100.00;64013.03;5384270;26;20024;-79
2024/04/23 05:29:20;;;;;;;36.53;33.92;;;;;;;-143.39;100.00;64013.03;5381681;26;20004;-78
2024/04/23 05:34:43;;;;;;;34.25;31.95;;;;;;;-143.39;100.00;64013.03;5383949;26;20085;-79
2024/04/23 05:37:14;;;;;;;36.42;33.90;;;;;;;-143.39;100.00;64013.03;5380521;26;20051;-78
2024/04/23 05:39:43;;;;;;;36.53;34.13;;;;;;;-143.39;100.00;64013.03;5377583;26;20004;-79
2024/04/23 05:42:12;;;;;;;36.05;33.55;;;;;;;-143.39;100.00;64013.03;5376305;26;20000;-78
2024/04/23 05:44:41;;;;;;;37.80;35.13;;;;;;;-143.39;100.00;64013.03;5377066;26;20004;-79
2024/04/23 05:47:10;;;;;;;37.20;34.90;;;;;;;-143.39;100.00;64013.03;5378021;26;20065;-79
2024/04/23 05:50:16;;;;;;;33.33;31.23;;;;;;;-143.39;100.00;64013.03;5378041;26;20000;-78
2024/04/23 05:53:22;;;;;;;34.10;32.00;;;;;;;-143.39;100.00;64013.03;5377451;26;20036;-79
2024/04/23 05:55:54;;;;;;;32.72;30.70;;;;;;;-143.39;100.00;64013.03;5355421;26;20015;-78
2024/04/23 05:58:20;;;;;;;33.40;31.50;;;;;;;-143.39;100.00;64013.03;5370910;26;20000;-78
2024/04/23 06:01:01;;;;;;;39.33;36.85;;;;;;;-143.39;100.00;64013.03;5383765;26;20008;-79
2024/04/23 06:04:02;;;;;;;33.92;31.55;;;;;;;-143.39;100.00;64013.03;5381324;26;20000;-78
2024/04/23 06:06:42;;;;;;;34.50;32.60;;;;;;;-143.39;100.00;64013.03;5383644;26;20015;-79
2024/04/23 06:09:33;;;;;;;36.25;33.70;;;;;;;-143.39;100.00;64013.03;5381452;26;20029;-79
2024/04/23 06:12:29;;;;;;;37.10;34.90;;;;;;;-143.39;100.00;64013.03;5383562;26;20341;-79
2024/04/23 06:15:08;;;;;;;36.63;34.33;;;;;;;-143.39;100.00;64013.03;5381534;26;20019;-78
2024/04/23 06:18:13;;;;;;;37.67;35.38;;;;;;;-143.39;100.00;64013.03;5383366;26;20328;-79
2024/04/23 06:20:52;;;;;;;34.00;31.90;;;;;;;-143.39;100.00;64013.03;5381313;26;20008;-78
2024/04/23 06:23:27;;;;;;;33.95;31.85;;;;;;;-143.39;100.00;64013.03;5354841;26;20082;-79
2024/04/23 06:26:00;;;;;;;33.00;30.90;;;;;;;-143.39;100.00;64013.03;5380791;26;20004;-79
2024/04/23 06:28:26;;;;;;;35.08;32.97;;;;;;;-143.39;100.00;64013.03;5380956;26;20000;-79
2024/04/23 06:31:15;;;;;;;33.53;31.52;;;;;;;-143.39;100.00;64013.03;5383531;26;20090;-79
2024/04/23 06:33:42;;;;;;;33.28;31.27;;;;;;;-143.39;100.00;64013.03;5380833;26;20004;-79
2024/04/23 06:36:12;;;;;;;34.92;32.72;;;;;;;-143.39;100.00;64013.03;5383259;26;20008;-78
2024/04/23 06:38:38;;;;;;;35.65;33.30;;;;;;;-143.39;100.00;64013.03;5376814;26;20351;-78
2024/04/23 06:41:16;;;;;;;33.53;31.50;;;;;;;-143.39;100.00;64013.03;5382421;26;20004;-79
2024/04/23 06:43:57;;;;;;;34.33;32.40;;;;;;;-143.39;100.00;64013.03;5381345;26;20015;-79
2024/04/23 06:46:29;;;;;;;34.88;32.88;;;;;;;-143.39;100.00;64013.03;5383102;26;20369;-79
2024/04/23 06:49:21;;;;;;;37.85;35.22;;;;;;;-143.39;100.00;64013.03;5380686;26;20091;-79
2024/04/23 06:51:50;;;;;;;35.90;33.70;;;;;;;-143.39;100.00;64013.03;5382364;26;20484;-79
2024/04/23 06:54:17;;;;;;;34.00;31.90;;;;;;;-143.39;100.00;64013.03;5381919;26;20012;-78
2024/04/23 06:56:46;;;;;;;36.33;34.03;;;;;;;-143.39;100.00;64013.03;5386523;26;20445;-79
2024/04/23 07:03:01;;;;;;;36.22;34.03;;;;;;;-143.39;100.00;64013.03;5386821;26;20008;-79
2024/04/23 07:05:53;;;;;;;34.30;32.20;;;;;;;-143.39;100.00;64013.03;5384057;26;20004;-78
2024/04/23 07:08:35;;;;;;;34.63;32.33;;;;;;;-143.39;100.00;64013.03;5386927;26;20004;-79
2024/04/23 07:11:01;;;;;;;34.38;32.17;;;;;;;-143.39;100.00;64013.03;5385110;26;20000;-78
2024/04/23 07:13:46;;;;;;;34.38;32.17;;;;;;;-143.39;100.00;64013.03;5386533;26;20000;-79
2024/04/23 07:16:31;;;;;;;32.20;30.20;;;;;;;-143.39;100.00;64013.03;5383955;26;20459;-78
2024/04/23 07:19:09;;;;;;;30.98;29.08;;;;;;;-143.39;100.00;64013.03;5386479;26;20000;-79
2024/04/23 07:21:48;;;;;;;30.88;28.98;;;;;;;-143.39;100.00;64013.03;5384006;26;20000;-79
2024/04/23 07:24:20;;;;;;;32.45;30.55;;;;;;;-143.39;100.00;64013.03;5386359;26;20004;-79
2024/04/23 07:26:53;;;;;;;36.10;34.10;;;;;;;-143.39;100.00;64013.03;5383415;26;20431;-78
2024/04/23 07:29:22;;;;;;;33.75;31.65;;;;;;;-143.39;100.00;64013.03;5401782;21;20901;-78
2024/04/23 07:31:51;;;;;;;33.83;31.90;;;;;;;-143.39;100.00;64013.03;5414249;26;20106;-78
2024/04/23 07:34:17;;;;;;;36.88;34.78;;;;;;;-143.39;100.00;64013.03;5415264;26;20004;-78
2024/04/23 07:36:46;;;;;;;38.53;35.92;;;;;;;-143.39;100.00;64013.03;5417619;26;20011;-78
2024/04/23 07:39:13;;;;;;;35.75;33.65;;;;;;;-143.39;100.00;64013.03;5415039;26;20101;-78
2024/04/23 07:41:44;;;;;;;33.42;31.42;;;;;;;-143.39;100.00;64013.03;5417348;26;20010;-78
2024/04/23 07:44:12;;;;;;;37.65;35.55;;;;;;;-143.39;100.00;64013.03;5414942;26;20347;-79
2024/04/23 07:46:40;;;;;;;38.75;36.55;;;;;;;-143.39;100.00;64013.03;5416810;26;20022;-78
2024/04/23 07:49:07;;;;;;;40.60;38.30;;;;;;;-143.39;100.00;64013.03;5414856;26;20037;-78
2024/04/23 07:51:35;;;;;;;39.28;36.95;;;;;;;-143.39;100.00;64013.03;5416617;26;20035;-78
2024/04/23 07:54:01;;;;;;;36.35;34.20;;;;;;;-143.39;100.00;64013.03;5414065;26;20014;-78
2024/04/23 07:56:30;;;;;;;36.92;34.72;;;;;;;-143.39;100.00;64013.03;5417043;26;20003;-77
2024/04/23 07:58:59;;;;;;;35.85;33.55;;;;;;;-143.39;100.00;64013.03;5406712;26;20072;-78
2024/04/23 08:01:28;;;;;;;36.58;34.28;;;;;;;-143.39;100.00;64013.03;5416882;26;20443;-79
2024/04/23 08:03:54;;;;;;;35.42;32.67;;;;;;;-143.39;100.00;64013.03;5414931;26;20546;-78
2024/04/23 08:06:23;;;;;;;36.08;33.53;;;;;;;-143.39;100.00;64013.03;5416313;26;20004;-79
2024/04/23 08:08:49;;;;;;;38.30;35.60;;;;;;;-143.39;100.00;64013.03;5434055;26;19999;-79
2024/04/23 08:11:20;;;;;;;37.97;35.28;;;;;;;-143.39;100.00;64013.03;5453239;26;19999;-79
2024/04/23 08:13:46;;;;;;;39.22;36.42;;;;;;;-143.39;100.00;64013.03;5434424;26;20000;-79
2024/04/23 08:16:17;;;;;;;40.80;37.90;;;;;;;-143.39;100.00;64013.03;5417058;26;20818;-79
2024/04/23 08:18:45;;;;;;;39.08;36.28;;;;;;;-143.39;100.00;64013.03;5414388;26;20071;-79
2024/04/23 08:21:16;;;;;;;40.90;37.83;;;;;;;-143.39;100.00;64013.03;5420219;26;20003;-78
2024/04/23 08:23:46;;;;;;;39.05;36.25;;;;;;;-143.39;100.00;64013.03;5417723;26;19999;-78
2024/04/23 08:26:16;;;;;;;34.95;32.35;;;;;;;-143.39;100.00;64013.03;5420461;26;20000;-78
2024/04/23 08:28:52;;;;;;;34.30;31.70;;;;;;;-143.39;100.00;64013.03;5417420;26;20015;-78
2024/04/23 08:31:24;;;;;;;31.80;29.30;;;;;;;-143.39;100.00;64013.03;5419407;26;20043;-78
2024/04/23 08:34:04;;;;;;;31.52;29.13;;;;;;;-143.39;100.00;64013.03;5417362;26;20003;-78
2024/04/23 08:36:58;;;;;;;32.65;30.17;;;;;;;-143.39;100.00;64013.03;5419879;26;20440;-78
2024/04/23 08:39:34;;;;;;;32.80;30.30;;;;;;;-143.39;100.00;64013.03;5385103;26;20000;-78
2024/04/23 08:42:24;;;;;;;32.13;29.73;;;;;;;-143.39;100.00;64013.03;5419558;26;20439;-78
2024/04/23 08:44:59;;;;;;;32.90;30.40;;;;;;;-143.39;100.00;64013.03;5416936;26;20075;-78
2024/04/23 08:47:31;;;;;;;35.10;32.67;;;;;;;-143.39;100.00;64013.03;5410590;26;20076;-79
2024/04/23 08:50:21;;;;;;;36.03;33.42;;;;;;;-143.39;100.00;64013.03;5416952;26;20000;-78
2024/04/23 08:53:07;;;;;;;36.92;34.30;;;;;;;-143.39;100.00;64013.03;5417725;26;20002;-79
2024/04/23 08:55:45;;;;;;;35.47;32.97;;;;;;;-143.39;100.00;64013.03;5419427;26;20370;-79
2024/04/23 08:58:12;;;;;;;35.72;33.22;;;;;;;-143.39;100.00;64013.03;5414777;26;19995;-78
2024/04/23 09:00:43;;;;;;;35.78;33.17;;;;;;;-143.39;100.00;64013.03;5417798;26;20014;-78
2024/04/23 09:03:14;;;;;;;39.58;36.88;;;;;;;-143.39;100.00;64013.03;5417010;26;20014;-78
2024/04/23 09:05:45;;;;;;;38.72;36.03;;;;;;;-143.39;100.00;64013.03;5418000;26;20102;-78
2024/04/23 09:08:15;;;;;;;37.95;35.20;;;;;;;-143.39;100.00;64013.03;5415046;26;20035;-78
2024/04/23 09:10:45;;;;;;;36.17;33.58;;;;;;;-143.39;100.00;64013.03;5417616;26;20018;-79
2024/04/23 09:13:22;;;;;;;37.88;35.22;;;;;;;-143.39;100.00;64013.03;5415609;26;20018;-78
2024/04/23 09:15:49;;;;;;;39.58;36.78;;;;;;;-143.39;100.00;64013.03;5416149;26;20003;-78
2024/04/23 09:18:24;;;;;;;39.63;36.83;;;;;;;-143.39;100.00;64013.03;5417865;26;20015;-79
2024/04/23 09:20:51;;;;;;;42.42;39.47;;;;;;;-143.39;100.00;64013.03;5414874;26;20053;-79
2024/04/23 09:23:38;;;;;;;39.90;37.10;;;;;;;-143.39;100.00;64013.03;5418743;26;20011;-79
2024/04/23 09:26:05;;;;;;;39.22;36.45;;;;;;;-143.39;100.00;64013.03;5413621;26;20000;-78
2024/04/23 09:28:35;;;;;;;42.28;39.38;;;;;;;-143.39;100.00;64013.03;5417167;26;20004;-79
2024/04/23 09:31:01;;;;;;;45.78;42.67;;;;;;;-143.39;100.00;64013.03;5415614;26;20010;-79
2024/04/23 09:33:33;;;;;;;49.40;45.80;;;;;;;-143.39;100.00;64013.03;5418501;26;20163;-78
2024/04/23 09:36:02;;;;;;;47.13;43.63;;;;;;;-143.39;100.00;64013.03;5415005;26;20007;-79
2024/04/23 09:38:36;;;;;;;51.33;47.25;;;;;;;-143.39;100.00;64013.03;5416988;26;20056;-78
2024/04/23 09:41:03;;;;;;;48.17;44.78;;;;;;;-143.39;100.00;64013.03;5413852;26;20000;-79
2024/04/23 09:43:32;;;;;;;56.33;52.30;;;;;;;-143.39;100.00;64013.03;5416433;26;20000;-78
2024/04/23 09:46:00;;;;;;;57.30;52.65;;;;;;;-143.39;100.00;64013.03;5414189;26;20000;-79
2024/04/23 09:48:38;;;;;;;48.35;44.45;;;;;;;-143.39;100.00;64013.03;5416629;26;20094;-79
2024/04/23 09:51:07;;;;;;;45.08;42.08;;;;;;;-143.39;100.00;64013.03;5413927;26;20493;-78
2024/04/23 09:53:36;;;;;;;45.33;42.13;;;;;;;-143.39;100.00;64013.03;5416823;26;20036;-78
2024/04/23 09:56:03;;;;;;;39.20;36.40;;;;;;;-143.39;100.00;64013.03;5413264;26;20072;-79
2024/04/23 09:58:32;;;;;;;39.95;37.05;;;;;;;-143.39;100.00;64013.03;5412030;26;20497;-78
2024/04/23 10:00:59;;;;;;;38.42;35.63;;;;;;;-143.39;100.00;64013.03;5412817;26;20404;-79
2024/04/23 10:03:29;;;;;;;44.60;41.30;;;;;;;-143.39;100.00;64013.03;5416264;26;20019;-78
2024/04/23 10:06:02;;;;;;;43.78;40.67;;;;;;;-143.39;100.00;64013.03;5413113;26;20016;-79
2024/04/23 10:08:35;;;;;;;47.03;43.83;;;;;;;-143.39;100.00;64013.03;5416070;26;20004;-79
2024/04/23 10:11:02;;;;;;;44.10;41.10;;;;;;;-143.39;100.00;64013.03;5413453;26;20713;-78
2024/04/23 10:13:35;;;;;;;41.25;38.38;;;;;;;-143.39;100.00;64013.03;5414521;26;20010;-78
2024/04/23 10:16:09;;;;;;;42.95;39.95;;;;;;;-143.39;100.00;64013.03;5412885;26;20004;-78
2024/04/23 10:18:43;;;;;;;38.05;35.53;;;;;;;-143.39;100.00;64013.03;5415531;26;20040;-79
2024/04/23 10:21:28;;;;;;;38.67;36.03;;;;;;;-143.39;100.00;64013.03;5411565;26;20000;-78
2024/04/23 10:24:02;;;;;;;37.60;35.20;;;;;;;-143.39;100.00;64013.03;5412499;26;20982;-78
2024/04/23 10:26:34;;;;;;;39.03;36.53;;;;;;;-143.39;100.00;64013.03;5411620;26;20039;-80
2024/04/23 10:29:02;;;;;;;37.70;35.03;;;;;;;-143.39;100.00;64013.03;5409054;26;20014;-80
2024/04/23 10:31:33;;;;;;;39.55;36.75;;;;;;;-143.39;100.00;64013.03;5418674;26;19999;-79
2024/04/23 10:34:01;;;;;;;46.65;43.60;;;;;;;-143.39;100.00;64013.03;5414990;26;20845;-80
2024/04/23 10:36:35;;;;;;;48.80;45.70;;;;;;;-143.39;100.00;64013.03;5393146;26;20509;-79
2024/04/23 10:39:02;;;;;;;47.45;44.45;;;;;;;-143.39;100.00;64013.03;5416534;26;20036;-80
2024/04/23 10:41:33;;;;;;;45.10;42.30;;;;;;;-143.39;100.00;64013.03;5419164;26;20035;-79
2024/04/23 10:44:00;;;;;;;44.53;41.72;;;;;;;-143.39;100.00;64013.03;5414985;26;20003;-80
2024/04/23 10:46:29;;;;;;;50.85;47.55;;;;;;;-143.39;100.00;64013.03;5436201;26;20043;-81
2024/04/23 10:48:55;;;;;;;49.38;46.08;;;;;;;-143.39;100.00;64013.03;5416595;26;20480;-79
2024/04/23 10:51:26;;;;;;;46.22;43.33;;;;;;;-143.39;100.00;64013.03;5419030;26;20098;-80
2024/04/23 10:53:59;;;;;;;45.38;42.38;;;;;;;-143.39;100.00;64013.03;5388458;26;20433;-80
2024/04/23 10:56:26;;;;;;;42.90;40.30;;;;;;;-143.39;100.00;64013.03;5406219;26;20011;-80
2024/04/23 10:59:05;;;;;;;46.97;44.17;;;;;;;-143.39;100.00;64013.03;5412102;26;20007;-80
2024/04/23 11:01:50;;;;;;;46.15;43.45;;;;;;;-143.39;100.00;64013.03;5416137;26;20007;-78
2024/04/23 11:04:19;;;;;;;44.97;42.08;;;;;;;-143.39;100.00;64013.03;5385582;26;20467;-78
2024/04/23 11:07:13;;;;;;;50.15;47.05;;;;;;;-143.39;100.00;64013.03;5399417;26;20018;-79
2024/04/23 11:09:49;;;;;;;48.10;45.08;;;;;;;-143.39;100.00;64013.03;5417904;26;20013;-78
2024/04/23 11:12:19;;;;;;;40.05;37.50;;;;;;;-143.39;100.00;64013.03;5420852;26;20045;-78
2024/04/23 11:14:47;;;;;;;42.08;39.38;;;;;;;-143.39;100.00;64013.03;5418358;26;20435;-78
2024/04/23 11:17:16;;;;;;;40.17;37.58;;;;;;;-143.39;100.00;64013.03;5421362;26;20055;-78
2024/04/23 11:19:46;;;;;;;37.38;34.92;;;;;;;-143.39;100.00;64013.03;5418021;26;20008;-78
2024/04/23 11:22:28;;;;;;;40.95;38.35;;;;;;;-143.39;100.00;64013.03;5432815;26;20014;-78
2024/04/23 11:25:02;;;;;;;47.22;44.03;;;;;;;-143.39;100.00;64013.03;5382901;26;20000;-78
2024/04/23 11:27:37;;;;;;;46.00;43.10;;;;;;;-143.39;100.00;64013.03;5412319;26;20003;-79